Time;durP1;ratioP1;P1;durP2;ratioP2;P2;SDS_P1;SDS_P2;PMS_P1;PMS_P2;Temp;Humidity;BMP_temperature;BMP_pressure;BME280_temperature;BME280_humidity;BME280_pressure;Samples;Min_cycle;Max_cycle;Signal;HPM_P1;HPM_P2
2021/12/31 00:00:46;;;;;;;2.97;2.60;;;12.70;99.90;;;;;;4997072;28;20661;-72
2021/12/31 00:03:13;;;;;;;8.10;3.00;;;12.70;99.90;;;;;;4978599;28;20633;-71
2021/12/31 00:05:40;;;;;;;5.07;2.30;;;12.70;99.90;;;;;;4997288;28;20613;-71
2021/12/31 00:08:06;;;;;;;4.20;2.80;;;12.70;99.90;;;;;;4997197;28;20696;-71
2021/12/31 00:10:33;;;;;;;3.10;2.80;;;12.60;99.90;;;;;;4999824;28;20692;-71
2021/12/31 00:12:59;;;;;;;4.43;2.70;;;12.70;99.90;;;;;;5000032;28;20588;-72
2021/12/31 00:15:26;;;;;;;7.60;2.63;;;12.60;99.90;;;;;;5000612;28;20215;-71
2021/12/31 00:17:52;;;;;;;2.60;2.50;;;12.60;99.90;;;;;;4982727;28;20613;-71
2021/12/31 00:20:23;;;;;;;2.77;2.57;;;12.60;99.90;;;;;;5000249;28;20592;-70
2021/12/31 00:25:22;;;;;;;4.60;2.30;;;12.50;99.90;;;;;;5001422;28;20585;-71
2021/12/31 00:27:49;;;;;;;12.00;3.30;;;12.50;99.90;;;;;;4998349;28;20622;-70
2021/12/31 00:30:17;;;;;;;3.70;2.97;;;12.50;99.90;;;;;;5000068;28;21022;-71
2021/12/31 00:32:43;;;;;;;5.37;2.97;;;12.50;99.90;;;;;;4999746;28;21140;-71
2021/12/31 00:35:10;;;;;;;3.30;3.10;;;12.40;99.90;;;;;;5000193;28;20622;-70
2021/12/31 00:37:38;;;;;;;3.50;2.47;;;12.40;99.90;;;;;;4999404;28;20636;-70
2021/12/31 00:40:08;;;;;;;3.63;2.67;;;12.40;99.90;;;;;;4999525;28;20652;-70
2021/12/31 00:42:35;;;;;;;4.35;3.33;;;12.40;99.90;;;;;;4998674;28;20222;-71
2021/12/31 00:45:02;;;;;;;3.30;2.60;;;12.30;99.90;;;;;;4999194;28;20203;-71
2021/12/31 00:47:29;;;;;;;3.87;2.60;;;12.30;99.90;;;;;;4998920;28;20195;-71
2021/12/31 00:49:55;;;;;;;2.70;2.33;;;12.20;99.90;;;;;;4998378;28;20621;-72
2021/12/31 00:52:21;;;;;;;4.78;2.85;;;12.20;99.90;;;;;;4998714;28;20686;-69
2021/12/31 00:54:48;;;;;;;5.00;2.63;;;12.10;99.90;;;;;;4998388;28;20218;-71
2021/12/31 00:57:14;;;;;;;3.47;2.60;;;12.10;99.90;;;;;;4997551;28;20614;-71
2021/12/31 00:59:41;;;;;;;2.70;2.50;;;12.00;99.90;;;;;;4998009;28;21222;-71
2021/12/31 01:02:10;;;;;;;4.38;2.35;;;11.90;99.90;;;;;;4997689;28;20665;-70
2021/12/31 01:04:38;;;;;;;6.30;3.33;;;11.80;99.90;;;;;;4996975;28;20205;-70
2021/12/31 01:07:05;;;;;;;2.58;2.38;;;11.70;99.90;;;;;;4998835;28;20638;-70
2021/12/31 01:09:31;;;;;;;3.20;2.90;;;11.60;99.90;;;;;;4999120;28;20202;-70
2021/12/31 01:11:59;;;;;;;2.97;2.70;;;11.60;99.90;;;;;;4999046;28;20626;-70
2021/12/31 01:17:45;;;;;;;3.95;3.53;;;11.60;99.90;;;;;;4991133;28;20202;-70
2021/12/31 01:20:14;;;;;;;5.32;3.20;;;11.50;99.90;;;;;;4998053;28;20281;-70
2021/12/31 01:22:40;;;;;;;4.65;3.00;;;11.60;99.90;;;;;;4997023;28;20645;-70
2021/12/31 01:25:08;;;;;;;3.88;3.53;;;11.60;99.90;;;;;;4996928;28;20214;-70
2021/12/31 01:27:35;;;;;;;3.50;3.15;;;11.50;99.90;;;;;;4996357;28;20206;-70
2021/12/31 01:30:04;;;;;;;4.15;2.90;;;11.50;99.90;;;;;;4995853;28;20255;-70
2021/12/31 01:32:31;;;;;;;3.10;2.80;;;11.40;99.90;;;;;;4996611;28;20202;-70
2021/12/31 01:34:58;;;;;;;5.55;3.20;;;11.40;99.90;;;;;;4995507;28;20267;-70
2021/12/31 01:37:25;;;;;;;3.35;3.05;;;11.40;99.90;;;;;;4998079;28;20295;-70
2021/12/31 01:39:51;;;;;;;5.55;3.42;;;11.30;99.90;;;;;;4998199;28;20215;-71
2021/12/31 01:42:23;;;;;;;3.83;3.00;;;11.30;99.90;;;;;;4997285;28;20223;-71
2021/12/31 01:44:57;;;;;;;5.00;3.38;;;11.20;99.90;;;;;;4996860;28;20198;-71
2021/12/31 01:47:34;;;;;;;3.47;3.17;;;11.20;99.90;;;;;;4997080;28;20206;-71
2021/12/31 01:50:06;;;;;;;7.07;3.30;;;11.10;99.90;;;;;;4997638;28;20256;-71
2021/12/31 01:52:35;;;;;;;7.60;3.60;;;11.10;99.90;;;;;;4997593;28;20214;-71
2021/12/31 01:55:03;;;;;;;8.10;4.20;;;11.10;99.90;;;;;;4996437;28;20206;-71
2021/12/31 01:57:32;;;;;;;3.70;3.45;;;11.00;99.90;;;;;;4996543;28;20191;-70
2021/12/31 01:59:59;;;;;;;5.00;3.20;;;11.00;99.90;;;;;;4996444;28;20225;-70
2021/12/31 02:02:25;;;;;;;5.72;3.80;;;10.90;99.90;;;;;;4995045;28;20223;-71
2021/12/31 02:04:53;;;;;;;4.00;3.60;;;10.90;99.90;;;;;;4996075;28;20532;-70
2021/12/31 02:07:20;;;;;;;5.57;3.45;;;10.90;99.90;;;;;;4996456;28;20230;-70
2021/12/31 02:09:48;;;;;;;5.60;3.60;;;10.90;99.90;;;;;;4996314;28;20205;-71
2021/12/31 02:12:16;;;;;;;9.65;4.25;;;10.80;99.90;;;;;;4994604;28;20210;-71
2021/12/31 02:14:42;;;;;;;7.47;4.35;;;10.80;99.90;;;;;;4994747;28;20282;-71
2021/12/31 02:17:10;;;;;;;6.70;4.20;;;10.80;99.90;;;;;;4994761;28;20202;-70
2021/12/31 02:19:38;;;;;;;9.02;4.45;;;10.80;99.90;;;;;;4994293;28;20214;-71
2021/12/31 02:22:04;;;;;;;11.23;3.97;;;10.70;99.90;;;;;;4973791;28;20334;-70
2021/12/31 02:24:31;;;;;;;7.40;4.60;;;10.70;99.90;;;;;;4974820;28;20203;-69
2021/12/31 02:26:58;;;;;;;5.85;4.38;;;10.70;99.90;;;;;;4975353;28;20210;-70
2021/12/31 02:29:25;;;;;;;4.85;4.35;;;10.70;99.90;;;;;;4975040;28;20594;-69
2021/12/31 02:31:53;;;;;;;6.57;4.90;;;10.70;99.90;;;;;;4974677;28;20219;-70
2021/12/31 02:34:20;;;;;;;4.63;4.22;;;10.50;99.90;;;;;;4975146;28;20272;-70
2021/12/31 02:36:47;;;;;;;6.32;4.10;;;10.40;99.90;;;;;;4974713;28;20683;-70
2021/12/31 02:39:14;;;;;;;6.07;4.20;;;10.40;99.90;;;;;;4975020;28;20254;-71
2021/12/31 02:41:40;;;;;;;4.95;4.10;;;10.30;99.90;;;;;;4975124;28;20234;-70
2021/12/31 02:44:07;;;;;;;7.68;4.43;;;10.30;99.90;;;;;;4974669;28;20208;-70
2021/12/31 02:46:34;;;;;;;4.68;4.25;;;10.30;99.90;;;;;;4974968;28;20207;-70
2021/12/31 02:49:00;;;;;;;12.10;4.15;;;10.20;99.90;;;;;;4974919;28;20199;-71
2021/12/31 02:51:28;;;;;;;6.45;5.07;;;10.10;99.90;;;;;;4974852;28;20269;-70
2021/12/31 02:53:56;;;;;;;7.35;4.95;;;10.10;99.90;;;;;;4974399;28;20697;-70
2021/12/31 02:56:23;;;;;;;7.95;4.38;;;10.00;99.90;;;;;;4974988;28;20207;-70
2021/12/31 02:58:51;;;;;;;6.97;4.90;;;10.00;99.90;;;;;;4974487;28;20203;-71
2021/12/31 03:01:18;;;;;;;8.45;4.80;;;9.90;99.90;;;;;;4974769;28;20266;-70
2021/12/31 03:03:47;;;;;;;5.00;4.60;;;9.90;99.90;;;;;;4974836;28;20266;-71
2021/12/31 03:06:16;;;;;;;10.13;5.20;;;10.00;99.90;;;;;;4974631;28;20227;-70
2021/12/31 03:08:48;;;;;;;5.55;5.10;;;10.10;99.90;;;;;;4974433;28;20257;-70
2021/12/31 03:11:18;;;;;;;7.38;5.80;;;10.10;99.90;;;;;;4974858;28;20623;-70
2021/12/31 03:13:51;;;;;;;5.80;5.22;;;10.00;99.90;;;;;;4974520;28;20570;-70
2021/12/31 03:16:22;;;;;;;7.85;5.55;;;10.00;99.90;;;;;;4974756;28;20218;-70
2021/12/31 03:18:50;;;;;;;7.25;5.50;;;10.00;99.90;;;;;;4974578;28;20674;-70
2021/12/31 03:21:22;;;;;;;61.63;48.22;;;9.90;99.90;;;;;;4982600;28;20234;-70
2021/12/31 03:23:54;;;;;;;38.85;28.33;;;9.90;99.90;;;;;;4993627;28;20187;-70
2021/12/31 03:26:22;;;;;;;19.52;16.60;;;9.80;99.90;;;;;;4976221;28;20206;-70
2021/12/31 03:28:49;;;;;;;17.27;15.45;;;9.80;99.90;;;;;;4994039;28;20199;-70
2021/12/31 03:31:15;;;;;;;21.73;19.35;;;9.70;99.90;;;;;;4993868;28;20659;-70
2021/12/31 03:33:42;;;;;;;12.05;10.68;;;9.70;99.90;;;;;;4993268;28;20202;-70
2021/12/31 03:36:09;;;;;;;13.07;8.05;;;9.70;99.90;;;;;;4993880;28;20209;-70
2021/12/31 03:38:35;;;;;;;8.70;7.85;;;9.80;99.90;;;;;;4993629;28;20249;-70
2021/12/31 03:41:01;;;;;;;9.60;7.80;;;9.70;99.90;;;;;;4993753;28;20203;-70
2021/12/31 03:43:28;;;;;;;13.10;10.85;;;9.70;99.90;;;;;;4996102;28;20265;-70
2021/12/31 03:45:54;;;;;;;19.60;15.27;;;9.70;99.90;;;;;;4997212;28;20256;-70
2021/12/31 03:48:21;;;;;;;11.68;10.23;;;9.70;99.90;;;;;;4996653;28;20209;-70
2021/12/31 03:50:48;;;;;;;11.15;9.95;;;9.60;99.90;;;;;;4997256;28;20617;-70
2021/12/31 03:53:15;;;;;;;10.23;9.07;;;9.60;99.90;;;;;;4996996;28;20671;-70
2021/12/31 03:55:42;;;;;;;16.58;10.25;;;9.70;99.90;;;;;;4996698;28;20613;-70
2021/12/31 03:58:09;;;;;;;14.75;10.75;;;9.60;99.90;;;;;;4997457;28;20305;-70
2021/12/31 04:00:36;;;;;;;13.65;10.52;;;9.60;99.90;;;;;;4996971;28;20583;-70
2021/12/31 04:03:07;;;;;;;22.73;11.43;;;9.60;99.90;;;;;;4996968;28;20229;-70
2021/12/31 04:05:35;;;;;;;11.70;10.50;;;9.60;99.90;;;;;;4996512;28;20202;-70
2021/12/31 04:08:02;;;;;;;14.38;12.35;;;9.60;99.90;;;;;;4996462;28;20229;-70
2021/12/31 04:10:28;;;;;;;15.93;13.30;;;9.60;99.90;;;;;;4996808;28;20236;-70
2021/12/31 04:12:55;;;;;;;13.00;11.35;;;9.60;99.90;;;;;;4996213;28;20207;-71
2021/12/31 04:15:22;;;;;;;10.70;9.60;;;9.50;99.90;;;;;;4996320;28;20210;-70
2021/12/31 04:17:48;;;;;;;14.27;10.95;;;9.50;99.90;;;;;;4996762;28;20272;-70
2021/12/31 04:20:58;;;;;;;14.48;10.85;;;9.50;99.90;;;;;;4996957;28;20612;-71
2021/12/31 04:23:14;;;;;;;15.93;10.95;;;9.50;99.90;;;;;;4991436;28;20223;-70
2021/12/31 04:25:42;;;;;;;15.07;10.35;;;9.40;99.90;;;;;;4997254;28;20191;-70
2021/12/31 04:28:08;;;;;;;16.25;10.80;;;9.40;99.90;;;;;;4979896;28;20654;-70
2021/12/31 04:30:35;;;;;;;14.27;11.93;;;9.40;99.90;;;;;;4996689;28;20211;-71
2021/12/31 04:33:01;;;;;;;18.50;12.98;;;9.30;99.90;;;;;;4979574;28;20203;-70
2021/12/31 04:35:28;;;;;;;15.60;11.60;;;9.30;99.90;;;;;;4997029;28;20218;-70
2021/12/31 04:37:54;;;;;;;13.23;10.35;;;9.30;99.90;;;;;;4996671;28;20203;-70
2021/12/31 04:40:21;;;;;;;16.75;11.35;;;9.30;99.90;;;;;;4997000;28;20207;-70
2021/12/31 04:42:48;;;;;;;15.10;11.30;;;9.20;99.90;;;;;;4996778;28;20280;-70
2021/12/31 04:45:14;;;;;;;14.20;11.55;;;9.10;99.90;;;;;;4996435;28;20202;-70
2021/12/31 04:47:41;;;;;;;15.70;11.77;;;9.10;99.90;;;;;;4996369;28;20210;-71
2021/12/31 04:50:08;;;;;;;13.40;10.95;;;9.10;99.90;;;;;;4996628;28;20616;-70
2021/12/31 04:52:35;;;;;;;12.30;10.68;;;9.00;99.90;;;;;;4996467;28;20728;-70
2021/12/31 04:55:01;;;;;;;13.60;11.05;;;9.00;99.90;;;;;;4978698;28;20210;-71
2021/12/31 04:57:28;;;;;;;12.73;10.88;;;8.90;99.90;;;;;;4997383;28;20213;-71
2021/12/31 04:59:54;;;;;;;15.13;10.88;;;8.90;99.90;;;;;;4996942;28;20202;-71
2021/12/31 05:02:21;;;;;;;13.43;10.73;;;8.80;99.90;;;;;;4997073;28;20222;-71
2021/12/31 05:04:47;;;;;;;14.93;10.32;;;8.80;99.90;;;;;;4996859;28;20206;-71
2021/12/31 05:07:14;;;;;;;13.38;10.80;;;8.80;99.90;;;;;;4996661;28;20621;-71
2021/12/31 05:09:40;;;;;;;15.18;10.90;;;8.80;99.90;;;;;;4996498;28;20662;-71
2021/12/31 05:12:12;;;;;;;17.00;11.02;;;8.90;99.90;;;;;;4996597;28;20237;-71
2021/12/31 05:14:38;;;;;;;13.45;10.15;;;8.90;99.90;;;;;;4995836;28;20202;-71
2021/12/31 05:17:05;;;;;;;15.55;10.88;;;8.90;99.90;;;;;;4996560;28;20203;-70
2021/12/31 05:19:31;;;;;;;19.35;11.25;;;8.80;99.90;;;;;;4995973;28;20213;-70
2021/12/31 05:21:57;;;;;;;15.18;11.20;;;8.70;99.90;;;;;;4995773;28;20649;-71
2021/12/31 05:24:24;;;;;;;19.10;13.45;;;8.70;99.90;;;;;;4995359;28;20203;-70
2021/12/31 05:26:50;;;;;;;14.45;10.93;;;8.70;99.90;;;;;;4995543;28;20616;-70
2021/12/31 05:29:17;;;;;;;12.23;9.73;;;8.60;99.90;;;;;;4995405;28;20662;-71
2021/12/31 05:31:43;;;;;;;12.68;11.00;;;8.40;99.90;;;;;;4996036;28;20677;-70
2021/12/31 05:34:09;;;;;;;13.95;10.85;;;8.40;99.90;;;;;;4995620;28;20257;-70
2021/12/31 05:36:36;;;;;;;13.35;10.80;;;8.30;99.90;;;;;;4994724;28;20597;-71
2021/12/31 05:39:02;;;;;;;12.68;10.60;;;8.20;99.90;;;;;;4994757;28;20260;-71
2021/12/31 05:41:31;;;;;;;11.20;9.43;;;8.20;99.90;;;;;;4994785;28;20202;-70
2021/12/31 05:43:57;;;;;;;18.38;11.00;;;8.10;99.90;;;;;;4995341;28;20248;-70
2021/12/31 05:46:23;;;;;;;13.55;10.57;;;8.10;99.90;;;;;;4995432;28;20261;-70
2021/12/31 05:48:50;;;;;;;18.10;10.25;;;8.10;99.90;;;;;;4995484;28;20206;-71
2021/12/31 05:51:16;;;;;;;14.55;10.05;;;8.00;99.90;;;;;;4995948;28;20203;-71
2021/12/31 05:53:43;;;;;;;12.77;8.95;;;8.00;99.90;;;;;;4995468;28;20609;-71
2021/12/31 05:56:10;;;;;;;12.60;9.60;;;7.90;99.90;;;;;;4994646;28;20206;-71
2021/12/31 05:58:36;;;;;;;12.98;9.95;;;7.80;99.90;;;;;;4994788;28;20662;-71
2021/12/31 06:01:02;;;;;;;10.00;7.82;;;7.80;99.90;;;;;;4995226;28;20206;-71
2021/12/31 06:03:29;;;;;;;15.73;11.18;;;7.80;99.90;;;;;;4995352;28;20219;-71
2021/12/31 06:05:55;;;;;;;16.85;11.00;;;7.80;99.90;;;;;;4976707;28;20233;-71
2021/12/31 06:08:21;;;;;;;14.30;11.68;;;7.80;99.90;;;;;;4995036;28;20207;-71
2021/12/31 06:10:48;;;;;;;22.75;13.02;;;7.80;99.90;;;;;;4994704;28;20272;-71
2021/12/31 06:13:14;;;;;;;15.10;11.77;;;7.90;99.90;;;;;;4995005;28;20610;-71
2021/12/31 06:15:45;;;;;;;23.58;13.80;;;7.90;99.90;;;;;;4994581;28;20265;-71
2021/12/31 06:18:12;;;;;;;18.23;12.90;;;7.90;99.90;;;;;;4994963;28;20220;-70
2021/12/31 06:20:41;;;;;;;15.73;12.95;;;7.90;99.90;;;;;;4994766;28;20261;-70
2021/12/31 06:23:07;;;;;;;19.50;13.88;;;7.90;99.90;;;;;;4995469;28;20223;-71
2021/12/31 06:25:34;;;;;;;19.77;13.25;;;7.90;99.90;;;;;;4995466;28;20202;-70
2021/12/31 06:28:01;;;;;;;25.98;15.48;;;7.80;99.90;;;;;;4995154;28;20214;-70
2021/12/31 06:30:28;;;;;;;20.02;13.82;;;7.80;99.90;;;;;;4995330;28;20221;-70
2021/12/31 06:32:54;;;;;;;29.27;16.00;;;7.80;99.90;;;;;;4994376;28;20206;-70
2021/12/31 06:35:21;;;;;;;19.05;12.88;;;7.80;99.90;;;;;;4994435;28;20586;-70
2021/12/31 06:37:49;;;;;;;24.63;16.42;;;7.80;99.90;;;;;;4994719;28;20214;-71
2021/12/31 06:40:15;;;;;;;22.48;14.02;;;7.80;99.90;;;;;;4994015;28;20199;-71
2021/12/31 06:42:41;;;;;;;18.70;12.90;;;7.70;99.90;;;;;;4994703;28;20576;-71
2021/12/31 06:45:08;;;;;;;18.83;13.77;;;7.80;99.90;;;;;;4994693;28;20213;-71
2021/12/31 06:47:35;;;;;;;21.60;13.73;;;7.70;99.90;;;;;;4994962;28;20662;-71
2021/12/31 06:50:04;;;;;;;19.70;13.80;;;7.70;99.90;;;;;;4994665;28;20203;-71
2021/12/31 06:52:35;;;;;;;18.00;12.60;;;7.70;99.90;;;;;;4994791;28;20210;-70
2021/12/31 06:55:01;;;;;;;17.73;13.00;;;7.60;99.90;;;;;;4995276;28;20194;-71
2021/12/31 06:57:28;;;;;;;17.92;13.10;;;7.60;99.90;;;;;;4995071;28;20273;-71
2021/12/31 06:59:54;;;;;;;20.85;13.75;;;7.50;99.90;;;;;;4977060;28;20213;-71
2021/12/31 07:02:20;;;;;;;21.02;13.88;;;7.50;99.90;;;;;;4994479;28;20709;-70
2021/12/31 07:04:47;;;;;;;17.55;13.70;;;7.60;99.90;;;;;;4977005;28;20245;-70
2021/12/31 07:07:13;;;;;;;18.65;14.85;;;7.50;99.90;;;;;;4976950;28;20222;-70
2021/12/31 07:09:40;;;;;;;20.65;15.38;;;7.60;99.90;;;;;;4994049;28;20260;-70
2021/12/31 07:12:07;;;;;;;20.25;15.60;;;7.70;99.90;;;;;;4994780;28;20213;-71
2021/12/31 07:14:33;;;;;;;21.60;15.55;;;7.60;99.90;;;;;;4994283;28;20552;-70
2021/12/31 07:17:00;;;;;;;29.70;21.13;;;7.60;99.90;;;;;;4994367;28;20210;-70
2021/12/31 07:19:26;;;;;;;43.10;27.60;;;7.50;99.90;;;;;;4997304;28;20674;-70
2021/12/31 07:21:53;;;;;;;44.55;26.50;;;7.50;99.90;;;;;;4979906;28;20230;-70
2021/12/31 07:24:19;;;;;;;52.33;26.20;;;7.50;99.90;;;;;;4997581;28;20202;-70
2021/12/31 07:26:46;;;;;;;40.75;24.00;;;7.50;99.90;;;;;;4997804;28;20280;-71
2021/12/31 07:29:12;;;;;;;23.35;16.90;;;7.60;99.90;;;;;;4997720;28;20206;-71
2021/12/31 07:31:38;;;;;;;19.10;15.05;;;7.50;99.90;;;;;;4980426;28;20209;-71
2021/12/31 07:34:05;;;;;;;27.08;17.42;;;7.50;99.90;;;;;;4997547;28;20272;-71
2021/12/31 07:36:31;;;;;;;26.02;17.77;;;7.50;99.90;;;;;;4980275;28;20705;-70
2021/12/31 07:39:05;;;;;;;25.77;15.70;;;7.50;99.90;;;;;;4996919;28;20260;-71
2021/12/31 07:41:32;;;;;;;24.15;17.15;;;7.50;99.90;;;;;;4979671;28;20569;-70
2021/12/31 07:43:59;;;;;;;31.55;17.60;;;7.50;99.90;;;;;;4997280;28;20218;-71
2021/12/31 07:46:25;;;;;;;28.70;19.38;;;7.40;99.90;;;;;;5001219;28;20309;-70
2021/12/31 07:48:52;;;;;;;51.28;20.25;;;7.30;99.90;;;;;;5007802;28;20210;-71
2021/12/31 07:51:18;;;;;;;24.30;15.38;;;7.30;99.90;;;;;;5002940;28;20198;-72
2021/12/31 07:53:45;;;;;;;18.70;13.57;;;7.20;99.90;;;;;;5000240;28;20290;-71
2021/12/31 07:56:11;;;;;;;20.45;14.27;;;7.20;99.90;;;;;;4999526;28;20211;-71
2021/12/31 07:58:37;;;;;;;23.30;14.77;;;7.20;99.90;;;;;;4999064;28;20210;-71
2021/12/31 08:01:04;;;;;;;26.42;17.15;;;7.30;99.90;;;;;;4999304;28;20209;-71
2021/12/31 08:03:31;;;;;;;19.75;14.52;;;7.30;99.90;;;;;;5005748;28;20293;-71
2021/12/31 08:05:57;;;;;;;17.85;14.48;;;7.30;99.90;;;;;;5002897;28;20840;-70
2021/12/31 08:08:24;;;;;;;22.02;15.70;;;7.40;99.90;;;;;;5001889;28;20604;-71
2021/12/31 08:10:50;;;;;;;22.40;14.98;;;7.50;99.90;;;;;;5000320;28;20194;-71
2021/12/31 08:13:16;;;;;;;23.80;17.27;;;7.50;99.90;;;;;;4998217;28;20563;-70
2021/12/31 08:15:43;;;;;;;21.30;15.45;;;7.60;99.90;;;;;;4999360;28;20210;-71
2021/12/31 08:18:10;;;;;;;20.23;16.17;;;7.70;99.90;;;;;;5003158;28;20293;-71
2021/12/31 08:20:37;;;;;;;27.65;18.20;;;7.70;99.90;;;;;;4999570;28;20241;-71
2021/12/31 08:23:09;;;;;;;23.25;17.13;;;7.80;99.90;;;;;;4998065;28;20222;-70
2021/12/31 08:25:39;;;;;;;19.13;15.90;;;7.90;99.90;;;;;;4996990;28;20267;-70
2021/12/31 08:28:06;;;;;;;27.10;18.52;;;8.00;99.90;;;;;;4996347;28;20203;-70
2021/12/31 08:30:32;;;;;;;23.92;16.50;;;8.10;99.90;;;;;;4995656;28;20269;-70
2021/12/31 08:32:59;;;;;;;20.63;16.10;;;8.10;99.90;;;;;;4996398;28;20716;-70
2021/12/31 08:35:26;;;;;;;24.30;17.67;;;8.10;99.90;;;;;;4996474;28;20543;-70
2021/12/31 08:37:52;;;;;;;19.85;15.18;;;8.20;99.90;;;;;;4996230;28;20241;-70
2021/12/31 08:40:20;;;;;;;22.70;16.15;;;8.20;99.90;;;;;;4996036;28;20210;-71
2021/12/31 08:42:47;;;;;;;20.88;16.35;;;8.40;99.90;;;;;;4995766;28;20226;-71
2021/12/31 08:45:13;;;;;;;20.92;16.15;;;8.40;99.90;;;;;;4995608;28;20209;-71
2021/12/31 08:47:40;;;;;;;26.23;16.77;;;8.50;99.90;;;;;;4996039;28;20199;-71
2021/12/31 08:50:07;;;;;;;24.33;17.58;;;8.50;99.90;;;;;;4995984;28;20210;-70
2021/12/31 08:52:33;;;;;;;23.08;17.27;;;8.60;99.90;;;;;;4994940;28;20334;-70
2021/12/31 08:54:59;;;;;;;25.60;18.83;;;8.60;99.90;;;;;;4995553;28;20249;-71
2021/12/31 08:57:26;;;;;;;26.88;17.92;;;8.70;99.90;;;;;;4995743;28;20694;-70
2021/12/31 08:59:52;;;;;;;27.38;18.27;;;8.80;99.90;;;;;;4996306;28;20207;-70
2021/12/31 09:02:19;;;;;;;28.25;17.08;;;8.90;99.90;;;;;;4996174;28;20218;-70
2021/12/31 09:04:46;;;;;;;23.17;17.08;;;8.90;99.90;;;;;;4995723;28;20577;-71
2021/12/31 09:07:12;;;;;;;21.95;17.63;;;9.00;99.90;;;;;;4995510;28;20218;-70
2021/12/31 09:09:39;;;;;;;25.08;17.63;;;9.10;99.90;;;;;;4995709;28;20209;-71
2021/12/31 09:12:05;;;;;;;21.70;16.48;;;9.10;99.90;;;;;;4995525;28;20202;-71
2021/12/31 09:14:32;;;;;;;20.00;15.98;;;9.20;99.90;;;;;;4995459;28;20199;-71
2021/12/31 09:17:00;;;;;;;25.60;15.50;;;9.30;99.90;;;;;;4995558;28;20693;-70
2021/12/31 09:19:27;;;;;;;19.25;14.70;;;9.30;99.90;;;;;;4995271;28;20210;-70
2021/12/31 09:21:55;;;;;;;20.05;13.93;;;9.40;99.90;;;;;;4995708;28;20245;-69
2021/12/31 09:24:22;;;;;;;15.73;13.98;;;9.40;99.90;;;;;;4995701;28;20222;-70
2021/12/31 09:26:49;;;;;;;15.82;13.10;;;9.50;99.90;;;;;;4996677;28;20563;-69
2021/12/31 09:29:18;;;;;;;14.52;12.30;;;9.50;99.90;;;;;;4995383;28;20217;-68
2021/12/31 09:31:45;;;;;;;15.57;12.05;;;9.60;99.90;;;;;;4995227;28;20213;-69
2021/12/31 09:34:11;;;;;;;18.17;12.32;;;9.70;99.90;;;;;;4995814;28;20213;-69
2021/12/31 09:36:38;;;;;;;13.95;12.38;;;9.70;99.90;;;;;;4996058;28;20667;-69
2021/12/31 09:39:04;;;;;;;12.77;10.90;;;9.80;99.90;;;;;;4996902;28;20209;-69
2021/12/31 09:41:31;;;;;;;11.95;10.15;;;9.90;99.90;;;;;;4995755;28;20202;-69
2021/12/31 09:43:57;;;;;;;12.98;10.75;;;10.00;99.90;;;;;;4996781;28;20222;-69
2021/12/31 09:46:24;;;;;;;10.95;9.70;;;10.10;99.90;;;;;;4994855;28;20269;-70
2021/12/31 09:48:50;;;;;;;10.85;9.38;;;10.20;99.90;;;;;;4995263;28;20199;-70
2021/12/31 09:51:17;;;;;;;12.25;9.10;;;10.20;99.90;;;;;;4995928;28;20206;-69
2021/12/31 09:53:45;;;;;;;9.85;8.25;;;10.20;99.90;;;;;;4996034;28;20210;-69
2021/12/31 09:56:13;;;;;;;9.90;8.85;;;10.30;99.90;;;;;;4995881;28;20592;-70
2021/12/31 09:58:40;;;;;;;9.15;8.35;;;10.30;99.90;;;;;;4995191;28;20206;-71
2021/12/31 10:01:08;;;;;;;11.27;8.63;;;10.30;99.90;;;;;;4995393;28;20210;-71
2021/12/31 10:03:37;;;;;;;11.02;9.10;;;10.20;99.90;;;;;;4995711;28;20233;-70
2021/12/31 10:06:16;;;;;;;16.02;9.40;;;10.30;99.90;;;;;;4993966;28;20226;-71
2021/12/31 10:08:47;;;;;;;12.07;9.20;;;10.30;99.90;;;;;;4993637;28;20202;-70
2021/12/31 10:11:18;;;;;;;9.05;8.23;;;10.30;99.90;;;;;;4995056;28;20208;-71
2021/12/31 10:13:57;;;;;;;11.15;9.50;;;10.40;99.90;;;;;;4993727;28;20202;-70
2021/12/31 10:16:36;;;;;;;13.52;9.13;;;10.40;99.90;;;;;;4995264;28;20187;-72
2021/12/31 10:19:11;;;;;;;11.00;9.52;;;10.40;99.90;;;;;;4995004;28;20191;-71
2021/12/31 10:21:41;;;;;;;9.45;8.50;;;10.50;99.90;;;;;;4994738;28;20237;-71
2021/12/31 10:24:25;;;;;;;9.80;8.80;;;10.30;99.90;;;;;;4994885;28;20226;-70
2021/12/31 10:27:17;;;;;;;10.23;8.65;;;10.40;99.90;;;;;;4995135;28;20206;-70
2021/12/31 10:29:56;;;;;;;9.38;8.10;;;10.50;99.90;;;;;;4977171;28;20567;-69
2021/12/31 10:32:26;;;;;;;8.80;7.90;;;10.60;99.90;;;;;;4994692;28;20186;-70
2021/12/31 10:34:53;;;;;;;10.75;7.60;;;10.70;99.90;;;;;;4994819;28;20218;-71
2021/12/31 10:37:23;;;;;;;9.48;7.07;;;10.70;99.90;;;;;;4995159;28;20673;-69
2021/12/31 10:40:00;;;;;;;8.40;7.60;;;10.90;99.90;;;;;;4994936;28;20693;-70
2021/12/31 10:42:32;;;;;;;9.18;8.23;;;10.90;99.90;;;;;;4994849;28;20249;-70
2021/12/31 10:45:02;;;;;;;8.98;8.18;;;10.80;99.90;;;;;;4995426;28;20198;-70
2021/12/31 10:47:35;;;;;;;9.65;7.57;;;11.00;99.90;;;;;;4994282;28;20232;-70
2021/12/31 10:50:06;;;;;;;6.60;6.05;;;11.20;99.90;;;;;;4994479;28;20186;-70
2021/12/31 10:52:39;;;;;;;7.97;6.43;;;11.70;99.90;;;;;;4993845;28;20637;-70
2021/12/31 10:55:23;;;;;;;6.73;5.80;;;11.90;99.90;;;;;;4994555;28;20578;-71
2021/12/31 10:57:53;;;;;;;7.40;6.70;;;11.90;99.90;;;;;;4993761;28;20629;-71
2021/12/31 11:00:21;;;;;;;7.45;6.57;;;11.90;99.90;;;;;;4994394;28;20609;-70
2021/12/31 11:02:48;;;;;;;5.70;5.20;;;11.90;99.90;;;;;;4994026;28;20685;-70
2021/12/31 11:05:18;;;;;;;5.93;5.10;;;11.80;99.90;;;;;;4994184;28;20636;-70
2021/12/31 11:07:45;;;;;;;5.90;5.43;;;12.10;99.90;;;;;;4994364;28;20993;-69
2021/12/31 11:10:13;;;;;;;4.83;4.40;;;12.40;99.90;;;;;;4992558;28;20621;-69
2021/12/31 11:12:43;;;;;;;3.83;3.50;;;13.00;99.90;;;;;;4994012;28;21131;-69
2021/12/31 11:15:09;;;;;;;5.37;4.80;;;12.80;99.90;;;;;;4993644;28;21141;-69
2021/12/31 11:17:37;;;;;;;4.40;3.63;;;12.90;99.90;;;;;;4994279;28;20637;-69
2021/12/31 11:20:05;;;;;;;5.10;4.27;;;13.00;99.90;;;;;;4993916;28;20629;-69
2021/12/31 11:22:32;;;;;;;3.90;3.60;;;12.70;99.90;;;;;;4992792;28;20703;-69
2021/12/31 11:25:17;;;;;;;3.77;3.47;;;12.60;99.90;;;;;;4993685;28;20665;-69
2021/12/31 11:27:47;;;;;;;3.10;2.90;;;12.50;99.90;;;;;;4993854;28;20613;-69
2021/12/31 11:30:40;;;;;;;3.33;3.10;;;12.60;99.90;;;;;;4993905;28;20618;-69
2021/12/31 11:33:07;;;;;;;3.50;3.30;;;12.70;99.90;;;;;;4994131;28;20656;-70
2021/12/31 11:35:39;;;;;;;3.13;2.70;;;12.80;99.90;;;;;;4993672;28;20617;-69
2021/12/31 11:38:27;;;;;;;2.90;2.70;;;12.80;99.90;;;;;;4993642;28;20626;-70
2021/12/31 11:41:17;;;;;;;2.97;2.67;;;12.70;99.90;;;;;;4983513;28;20667;-70
2021/12/31 11:43:44;;;;;;;5.47;3.27;;;12.90;99.90;;;;;;4993843;28;20691;-69
2021/12/31 11:51:34;;;;;;;3.20;3.00;;;12.70;99.90;;;;;;4993508;28;20614;-70
2021/12/31 11:54:01;;;;;;;3.40;3.10;;;12.80;99.90;;;;;;4993648;28;20629;-70
2021/12/31 11:56:36;;;;;;;2.80;2.60;;;12.90;99.90;;;;;;4994051;28;20629;-70
2021/12/31 11:59:08;;;;;;;3.30;3.00;;;13.20;99.90;;;;;;4993802;28;20985;-68
2021/12/31 12:01:38;;;;;;;3.40;3.03;;;13.00;99.90;;;;;;4993813;28;21042;-70
2021/12/31 12:04:27;;;;;;;6.00;3.47;;;13.20;99.90;;;;;;4994067;28;20722;-70
2021/12/31 12:07:02;;;;;;;3.43;3.13;;;13.40;99.90;;;;;;4997331;28;20634;-70
2021/12/31 12:09:38;;;;;;;4.50;3.47;;;13.70;99.90;;;;;;4996865;28;20620;-69
2021/12/31 12:12:21;;;;;;;5.13;4.63;;;13.70;99.90;;;;;;4996721;28;20644;-70
2021/12/31 12:14:50;;;;;;;3.47;3.17;;;14.30;99.90;;;;;;4997122;28;20585;-71
2021/12/31 12:17:39;;;;;;;7.03;3.83;;;14.30;99.90;;;;;;4996669;28;20621;-70
2021/12/31 12:20:11;;;;;;;4.27;3.83;;;14.10;99.90;;;;;;4997462;28;20683;-71
2021/12/31 12:22:53;;;;;;;4.10;3.20;;;13.40;99.90;;;;;;4996581;28;20665;-72
2021/12/31 12:25:22;;;;;;;5.83;5.10;;;13.30;99.90;;;;;;4996855;28;21237;-71
2021/12/31 12:27:54;;;;;;;4.73;4.30;;;12.80;99.90;;;;;;4996793;28;20626;-71
2021/12/31 12:30:21;;;;;;;7.33;4.80;;;12.50;99.90;;;;;;4996409;28;21136;-72
2021/12/31 12:35:36;;;;;;;4.60;4.20;;;12.50;99.90;;;;;;4980760;28;21225;-71
2021/12/31 12:38:21;;;;;;;5.80;5.20;;;12.40;99.90;;;;;;4976934;28;20601;-72
2021/12/31 12:40:47;;;;;;;5.73;4.20;;;12.30;99.90;;;;;;4977039;28;20637;-72
2021/12/31 12:43:29;;;;;;;5.17;4.67;;;12.30;99.90;;;;;;4977120;28;20922;-71
2021/12/31 12:46:03;;;;;;;6.43;3.90;;;12.50;99.90;;;;;;4976975;28;20627;-72
2021/12/31 12:48:30;;;;;;;5.60;3.67;;;12.50;99.90;;;;;;4959960;28;20733;-71
2021/12/31 12:50:59;;;;;;;4.40;4.10;;;12.50;99.90;;;;;;4977138;28;20636;-71
2021/12/31 12:53:28;;;;;;;5.10;4.70;;;12.60;99.90;;;;;;4976806;28;20593;-71
2021/12/31 12:56:04;;;;;;;5.23;4.77;;;12.40;99.90;;;;;;4977195;28;20615;-72
2021/12/31 12:58:32;;;;;;;5.33;4.80;;;12.30;99.90;;;;;;4995017;28;20629;-71
2021/12/31 13:01:03;;;;;;;5.47;4.20;;;12.30;99.90;;;;;;4996891;28;20657;-71